sensor_id;sensor_type;location;lat;lon;timestamp;P1;durP1;ratioP1;P2;durP2;ratioP2
22648;SDS011;11491;41.942;24.220;2022-12-20T00:00:26;29.92;;;15.00;;
22648;SDS011;11491;41.942;24.220;2022-12-20T00:02:53;29.00;;;16.25;;
22648;SDS011;11491;41.942;24.220;2022-12-20T00:05:20;30.80;;;17.75;;
22648;SDS011;11491;41.942;24.220;2022-12-20T00:07:47;23.58;;;14.27;;
22648;SDS011;11491;41.942;24.220;2022-12-20T00:10:14;24.75;;;13.10;;
22648;SDS011;11491;41.942;24.220;2022-12-20T00:12:41;25.88;;;15.65;;
22648;SDS011;11491;41.942;24.220;2022-12-20T00:15:08;22.33;;;12.85;;
22648;SDS011;11491;41.942;24.220;2022-12-20T00:17:37;27.30;;;14.77;;
22648;SDS011;11491;41.942;24.220;2022-12-20T00:20:04;28.70;;;16.02;;
22648;SDS011;11491;41.942;24.220;2022-12-20T00:22:32;25.02;;;14.20;;
22648;SDS011;11491;41.942;24.220;2022-12-20T00:24:59;16.83;;;10.57;;
22648;SDS011;11491;41.942;24.220;2022-12-20T00:27:26;21.15;;;12.77;;
22648;SDS011;11491;41.942;24.220;2022-12-20T00:29:53;44.08;;;28.50;;
22648;SDS011;11491;41.942;24.220;2022-12-20T00:32:19;25.75;;;16.25;;
22648;SDS011;11491;41.942;24.220;2022-12-20T00:34:48;18.38;;;10.48;;
22648;SDS011;11491;41.942;24.220;2022-12-20T00:37:14;16.58;;;10.10;;
22648;SDS011;11491;41.942;24.220;2022-12-20T00:39:41;16.08;;;9.70;;
22648;SDS011;11491;41.942;24.220;2022-12-20T00:42:08;19.25;;;10.30;;
22648;SDS011;11491;41.942;24.220;2022-12-20T00:44:35;21.33;;;11.43;;
22648;SDS011;11491;41.942;24.220;2022-12-20T00:47:02;20.00;;;12.10;;
22648;SDS011;11491;41.942;24.220;2022-12-20T00:49:29;17.08;;;9.95;;
22648;SDS011;11491;41.942;24.220;2022-12-20T00:51:57;16.37;;;10.07;;
22648;SDS011;11491;41.942;24.220;2022-12-20T00:54:24;23.75;;;14.35;;
22648;SDS011;11491;41.942;24.220;2022-12-20T00:56:51;18.30;;;11.50;;
22648;SDS011;11491;41.942;24.220;2022-12-20T00:59:19;23.10;;;13.70;;
22648;SDS011;11491;41.942;24.220;2022-12-20T01:01:46;27.17;;;14.13;;
22648;SDS011;11491;41.942;24.220;2022-12-20T01:04:14;30.03;;;17.37;;
22648;SDS011;11491;41.942;24.220;2022-12-20T01:06:41;40.35;;;22.83;;
22648;SDS011;11491;41.942;24.220;2022-12-20T01:09:10;29.42;;;18.02;;
22648;SDS011;11491;41.942;24.220;2022-12-20T01:11:37;22.83;;;12.90;;
22648;SDS011;11491;41.942;24.220;2022-12-20T01:14:05;26.23;;;13.83;;
22648;SDS011;11491;41.942;24.220;2022-12-20T01:16:34;38.47;;;20.30;;
22648;SDS011;11491;41.942;24.220;2022-12-20T01:19:03;20.67;;;12.73;;
22648;SDS011;11491;41.942;24.220;2022-12-20T01:21:31;24.43;;;14.17;;
22648;SDS011;11491;41.942;24.220;2022-12-20T01:23:57;19.90;;;10.83;;
22648;SDS011;11491;41.942;24.220;2022-12-20T01:26:26;28.98;;;16.27;;
22648;SDS011;11491;41.942;24.220;2022-12-20T01:28:55;22.37;;;13.03;;
22648;SDS011;11491;41.942;24.220;2022-12-20T01:31:24;19.20;;;10.18;;
22648;SDS011;11491;41.942;24.220;2022-12-20T01:33:52;22.35;;;12.93;;
22648;SDS011;11491;41.942;24.220;2022-12-20T01:36:20;35.63;;;18.83;;
22648;SDS011;11491;41.942;24.220;2022-12-20T01:38:49;62.92;;;35.22;;
22648;SDS011;11491;41.942;24.220;2022-12-20T01:41:16;39.65;;;21.58;;
22648;SDS011;11491;41.942;24.220;2022-12-20T01:43:47;48.57;;;28.73;;
22648;SDS011;11491;41.942;24.220;2022-12-20T01:46:15;59.90;;;33.70;;
22648;SDS011;11491;41.942;24.220;2022-12-20T01:48:44;29.90;;;18.50;;
22648;SDS011;11491;41.942;24.220;2022-12-20T01:51:15;48.20;;;28.37;;
22648;SDS011;11491;41.942;24.220;2022-12-20T01:53:43;34.03;;;19.00;;
22648;SDS011;11491;41.942;24.220;2022-12-20T01:56:10;44.85;;;32.63;;
22648;SDS011;11491;41.942;24.220;2022-12-20T01:58:36;46.67;;;32.17;;
22648;SDS011;11491;41.942;24.220;2022-12-20T02:01:06;32.20;;;23.83;;
22648;SDS011;11491;41.942;24.220;2022-12-20T02:03:35;23.20;;;13.93;;
22648;SDS011;11491;41.942;24.220;2022-12-20T02:06:14;35.95;;;25.23;;
22648;SDS011;11491;41.942;24.220;2022-12-20T02:08:42;21.47;;;13.13;;
22648;SDS011;11491;41.942;24.220;2022-12-20T02:11:14;27.70;;;15.93;;
22648;SDS011;11491;41.942;24.220;2022-12-20T02:14:08;15.27;;;9.02;;
22648;SDS011;11491;41.942;24.220;2022-12-20T02:16:47;14.57;;;8.23;;
22648;SDS011;11491;41.942;24.220;2022-12-20T02:19:24;19.13;;;10.73;;
22648;SDS011;11491;41.942;24.220;2022-12-20T02:22:13;19.60;;;11.55;;
22648;SDS011;11491;41.942;24.220;2022-12-20T02:25:03;21.33;;;13.23;;
22648;SDS011;11491;41.942;24.220;2022-12-20T02:27:52;20.17;;;12.18;;
22648;SDS011;11491;41.942;24.220;2022-12-20T02:30:25;14.98;;;9.00;;
22648;SDS011;11491;41.942;24.220;2022-12-20T02:32:56;16.48;;;9.00;;
22648;SDS011;11491;41.942;24.220;2022-12-20T02:35:27;13.80;;;8.90;;
22648;SDS011;11491;41.942;24.220;2022-12-20T02:37:57;15.80;;;8.17;;
22648;SDS011;11491;41.942;24.220;2022-12-20T02:40:27;16.53;;;8.50;;
22648;SDS011;11491;41.942;24.220;2022-12-20T02:42:59;19.05;;;9.10;;
22648;SDS011;11491;41.942;24.220;2022-12-20T02:45:30;18.43;;;9.33;;
22648;SDS011;11491;41.942;24.220;2022-12-20T02:48:01;17.75;;;9.88;;
22648;SDS011;11491;41.942;24.220;2022-12-20T02:50:34;17.83;;;9.40;;
22648;SDS011;11491;41.942;24.220;2022-12-20T02:53:03;16.03;;;8.80;;
22648;SDS011;11491;41.942;24.220;2022-12-20T02:55:34;16.77;;;9.17;;
22648;SDS011;11491;41.942;24.220;2022-12-20T02:58:09;15.23;;;8.27;;
22648;SDS011;11491;41.942;24.220;2022-12-20T03:00:44;23.97;;;14.77;;
22648;SDS011;11491;41.942;24.220;2022-12-20T03:03:15;14.60;;;8.83;;
22648;SDS011;11491;41.942;24.220;2022-12-20T03:05:52;14.63;;;8.43;;
22648;SDS011;11491;41.942;24.220;2022-12-20T03:08:20;14.63;;;7.90;;
22648;SDS011;11491;41.942;24.220;2022-12-20T03:10:48;14.23;;;7.97;;
22648;SDS011;11491;41.942;24.220;2022-12-20T03:13:16;15.20;;;8.20;;
22648;SDS011;11491;41.942;24.220;2022-12-20T03:15:44;15.30;;;7.77;;
22648;SDS011;11491;41.942;24.220;2022-12-20T03:18:11;13.63;;;8.10;;
22648;SDS011;11491;41.942;24.220;2022-12-20T03:20:38;16.67;;;10.33;;
22648;SDS011;11491;41.942;24.220;2022-12-20T03:23:05;15.10;;;9.23;;
22648;SDS011;11491;41.942;24.220;2022-12-20T03:25:32;19.80;;;10.70;;
22648;SDS011;11491;41.942;24.220;2022-12-20T03:27:59;16.47;;;9.07;;
22648;SDS011;11491;41.942;24.220;2022-12-20T03:30:25;14.80;;;8.77;;
22648;SDS011;11491;41.942;24.220;2022-12-20T03:32:54;14.73;;;8.13;;
22648;SDS011;11491;41.942;24.220;2022-12-20T03:35:20;16.80;;;8.87;;
22648;SDS011;11491;41.942;24.220;2022-12-20T03:37:47;14.97;;;9.20;;
22648;SDS011;11491;41.942;24.220;2022-12-20T03:40:14;18.07;;;9.73;;
22648;SDS011;11491;41.942;24.220;2022-12-20T03:42:41;15.23;;;8.83;;
22648;SDS011;11491;41.942;24.220;2022-12-20T03:45:08;15.90;;;9.70;;
22648;SDS011;11491;41.942;24.220;2022-12-20T03:47:36;17.83;;;10.00;;
22648;SDS011;11491;41.942;24.220;2022-12-20T03:50:07;17.87;;;9.57;;
22648;SDS011;11491;41.942;24.220;2022-12-20T03:52:34;16.87;;;8.80;;
22648;SDS011;11491;41.942;24.220;2022-12-20T03:55:01;15.37;;;8.30;;
22648;SDS011;11491;41.942;24.220;2022-12-20T03:57:29;14.90;;;7.33;;
22648;SDS011;11491;41.942;24.220;2022-12-20T03:59:56;16.00;;;8.43;;
22648;SDS011;11491;41.942;24.220;2022-12-20T04:02:22;16.20;;;9.17;;
22648;SDS011;11491;41.942;24.220;2022-12-20T04:04:49;18.97;;;10.53;;
22648;SDS011;11491;41.942;24.220;2022-12-20T04:07:17;16.53;;;9.50;;
22648;SDS011;11491;41.942;24.220;2022-12-20T04:09:44;18.80;;;10.83;;
22648;SDS011;11491;41.942;24.220;2022-12-20T04:12:11;19.40;;;10.00;;
22648;SDS011;11491;41.942;24.220;2022-12-20T04:14:37;19.57;;;10.43;;
22648;SDS011;11491;41.942;24.220;2022-12-20T04:17:04;28.57;;;12.33;;
22648;SDS011;11491;41.942;24.220;2022-12-20T04:19:31;19.40;;;11.13;;
22648;SDS011;11491;41.942;24.220;2022-12-20T04:21:58;21.57;;;11.33;;
22648;SDS011;11491;41.942;24.220;2022-12-20T04:24:26;24.87;;;12.07;;
22648;SDS011;11491;41.942;24.220;2022-12-20T04:26:53;23.33;;;12.20;;
22648;SDS011;11491;41.942;24.220;2022-12-20T04:29:20;25.17;;;12.70;;
22648;SDS011;11491;41.942;24.220;2022-12-20T04:31:46;27.23;;;14.03;;
22648;SDS011;11491;41.942;24.220;2022-12-20T04:34:13;26.87;;;13.77;;
22648;SDS011;11491;41.942;24.220;2022-12-20T04:36:40;24.53;;;12.20;;
22648;SDS011;11491;41.942;24.220;2022-12-20T04:39:07;30.97;;;19.87;;
22648;SDS011;11491;41.942;24.220;2022-12-20T04:41:35;32.00;;;15.70;;
22648;SDS011;11491;41.942;24.220;2022-12-20T04:44:02;34.63;;;16.77;;
22648;SDS011;11491;41.942;24.220;2022-12-20T04:46:29;33.13;;;16.80;;
22648;SDS011;11491;41.942;24.220;2022-12-20T04:48:55;35.20;;;17.97;;
22648;SDS011;11491;41.942;24.220;2022-12-20T04:51:22;43.50;;;20.77;;
22648;SDS011;11491;41.942;24.220;2022-12-20T04:53:49;36.07;;;17.10;;
22648;SDS011;11491;41.942;24.220;2022-12-20T04:56:15;37.20;;;18.30;;
22648;SDS011;11491;41.942;24.220;2022-12-20T04:58:45;36.53;;;18.33;;
22648;SDS011;11491;41.942;24.220;2022-12-20T05:01:13;35.80;;;18.90;;
22648;SDS011;11491;41.942;24.220;2022-12-20T05:03:40;44.13;;;25.23;;
22648;SDS011;11491;41.942;24.220;2022-12-20T05:06:07;81.77;;;46.63;;
22648;SDS011;11491;41.942;24.220;2022-12-20T05:08:34;90.97;;;49.00;;
22648;SDS011;11491;41.942;24.220;2022-12-20T05:11:01;93.53;;;47.87;;
22648;SDS011;11491;41.942;24.220;2022-12-20T05:13:28;44.37;;;25.40;;
22648;SDS011;11491;41.942;24.220;2022-12-20T05:15:56;42.10;;;23.07;;
22648;SDS011;11491;41.942;24.220;2022-12-20T05:18:23;43.37;;;24.10;;
22648;SDS011;11491;41.942;24.220;2022-12-20T05:20:53;52.10;;;27.47;;
22648;SDS011;11491;41.942;24.220;2022-12-20T05:23:34;68.25;;;39.38;;
22648;SDS011;11491;41.942;24.220;2022-12-20T05:26:19;74.00;;;41.00;;
22648;SDS011;11491;41.942;24.220;2022-12-20T05:28:46;72.73;;;42.30;;
22648;SDS011;11491;41.942;24.220;2022-12-20T05:31:14;81.17;;;44.73;;
22648;SDS011;11491;41.942;24.220;2022-12-20T05:33:41;77.97;;;41.23;;
22648;SDS011;11491;41.942;24.220;2022-12-20T05:36:08;83.03;;;45.37;;
22648;SDS011;11491;41.942;24.220;2022-12-20T05:38:35;71.00;;;40.67;;
22648;SDS011;11491;41.942;24.220;2022-12-20T05:41:01;71.27;;;38.40;;
22648;SDS011;11491;41.942;24.220;2022-12-20T05:43:30;82.67;;;45.60;;
22648;SDS011;11491;41.942;24.220;2022-12-20T05:45:58;81.67;;;45.60;;
22648;SDS011;11491;41.942;24.220;2022-12-20T05:48:35;98.00;;;53.13;;
22648;SDS011;11491;41.942;24.220;2022-12-20T05:51:03;87.83;;;54.63;;
22648;SDS011;11491;41.942;24.220;2022-12-20T05:53:30;78.47;;;46.20;;
22648;SDS011;11491;41.942;24.220;2022-12-20T05:55:57;80.70;;;47.47;;
22648;SDS011;11491;41.942;24.220;2022-12-20T05:58:25;109.93;;;61.90;;
22648;SDS011;11491;41.942;24.220;2022-12-20T06:00:52;95.70;;;54.60;;
22648;SDS011;11491;41.942;24.220;2022-12-20T06:03:20;113.23;;;59.67;;
22648;SDS011;11491;41.942;24.220;2022-12-20T06:05:48;110.50;;;60.80;;
22648;SDS011;11491;41.942;24.220;2022-12-20T06:08:15;99.37;;;53.57;;
22648;SDS011;11491;41.942;24.220;2022-12-20T06:10:42;93.93;;;53.27;;
22648;SDS011;11491;41.942;24.220;2022-12-20T06:13:09;100.67;;;51.00;;
22648;SDS011;11491;41.942;24.220;2022-12-20T06:15:36;87.80;;;51.50;;
22648;SDS011;11491;41.942;24.220;2022-12-20T06:18:23;61.83;;;35.93;;
22648;SDS011;11491;41.942;24.220;2022-12-20T06:20:52;67.63;;;39.80;;
22648;SDS011;11491;41.942;24.220;2022-12-20T06:23:19;70.83;;;45.93;;
22648;SDS011;11491;41.942;24.220;2022-12-20T06:25:46;79.87;;;46.13;;
22648;SDS011;11491;41.942;24.220;2022-12-20T06:28:13;79.83;;;49.53;;
22648;SDS011;11491;41.942;24.220;2022-12-20T07:04:46;127.53;;;75.27;;
22648;SDS011;11491;41.942;24.220;2022-12-20T10:33:40;43.22;;;32.95;;
22648;SDS011;11491;41.942;24.220;2022-12-20T10:54:35;20.88;;;14.23;;
22648;SDS011;11491;41.942;24.220;2022-12-20T11:03:04;25.67;;;18.63;;
22648;SDS011;11491;41.942;24.220;2022-12-20T11:05:38;29.45;;;22.52;;
22648;SDS011;11491;41.942;24.220;2022-12-20T11:08:12;30.42;;;24.10;;
22648;SDS011;11491;41.942;24.220;2022-12-20T11:10:47;17.92;;;13.20;;
22648;SDS011;11491;41.942;24.220;2022-12-20T11:13:19;14.68;;;10.45;;
22648;SDS011;11491;41.942;24.220;2022-12-20T11:18:26;18.15;;;13.32;;
22648;SDS011;11491;41.942;24.220;2022-12-20T11:21:13;22.63;;;19.13;;
22648;SDS011;11491;41.942;24.220;2022-12-20T11:24:13;20.83;;;13.38;;
22648;SDS011;11491;41.942;24.220;2022-12-20T11:26:57;14.93;;;12.07;;
22648;SDS011;11491;41.942;24.220;2022-12-20T11:29:44;27.90;;;22.17;;
22648;SDS011;11491;41.942;24.220;2022-12-20T11:36:12;24.30;;;15.82;;
22648;SDS011;11491;41.942;24.220;2022-12-20T11:44:08;26.13;;;16.23;;
22648;SDS011;11491;41.942;24.220;2022-12-20T11:51:55;22.83;;;14.73;;
22648;SDS011;11491;41.942;24.220;2022-12-20T11:54:31;29.02;;;20.55;;
22648;SDS011;11491;41.942;24.220;2022-12-20T11:57:06;28.15;;;19.65;;
22648;SDS011;11491;41.942;24.220;2022-12-20T12:02:19;32.40;;;24.35;;
22648;SDS011;11491;41.942;24.220;2022-12-20T12:04:53;39.92;;;27.67;;
22648;SDS011;11491;41.942;24.220;2022-12-20T12:07:26;27.77;;;20.75;;
22648;SDS011;11491;41.942;24.220;2022-12-20T12:09:58;39.08;;;25.23;;
22648;SDS011;11491;41.942;24.220;2022-12-20T12:12:41;40.05;;;27.98;;
22648;SDS011;11491;41.942;24.220;2022-12-20T12:25:44;37.45;;;25.63;;
22648;SDS011;11491;41.942;24.220;2022-12-20T12:28:14;55.30;;;34.53;;
22648;SDS011;11491;41.942;24.220;2022-12-20T12:30:44;38.53;;;24.10;;
22648;SDS011;11491;41.942;24.220;2022-12-20T12:33:14;31.15;;;19.48;;
22648;SDS011;11491;41.942;24.220;2022-12-20T12:35:50;33.30;;;21.75;;
22648;SDS011;11491;41.942;24.220;2022-12-20T12:45:05;57.55;;;34.20;;
22648;SDS011;11491;41.942;24.220;2022-12-20T12:47:42;29.65;;;19.52;;
22648;SDS011;11491;41.942;24.220;2022-12-20T12:50:16;50.28;;;27.63;;
22648;SDS011;11491;41.942;24.220;2022-12-20T12:55:39;37.20;;;25.90;;
22648;SDS011;11491;41.942;24.220;2022-12-20T12:58:29;32.95;;;21.40;;
22648;SDS011;11491;41.942;24.220;2022-12-20T13:00:59;32.83;;;21.88;;
22648;SDS011;11491;41.942;24.220;2022-12-20T13:03:37;28.38;;;19.02;;
22648;SDS011;11491;41.942;24.220;2022-12-20T13:09:36;28.75;;;18.77;;
22648;SDS011;11491;41.942;24.220;2022-12-20T13:18:25;31.67;;;19.35;;
22648;SDS011;11491;41.942;24.220;2022-12-20T13:36:29;26.40;;;16.63;;
22648;SDS011;11491;41.942;24.220;2022-12-20T13:39:02;32.20;;;21.80;;
22648;SDS011;11491;41.942;24.220;2022-12-20T13:41:45;29.92;;;20.33;;
22648;SDS011;11491;41.942;24.220;2022-12-20T13:44:30;38.10;;;24.00;;
22648;SDS011;11491;41.942;24.220;2022-12-20T14:01:08;39.30;;;23.58;;
22648;SDS011;11491;41.942;24.220;2022-12-20T14:08:50;43.28;;;26.08;;
22648;SDS011;11491;41.942;24.220;2022-12-20T14:43:25;63.20;;;42.08;;
22648;SDS011;11491;41.942;24.220;2022-12-20T15:00:00;69.32;;;35.60;;
22648;SDS011;11491;41.942;24.220;2022-12-20T15:02:39;73.97;;;40.10;;
22648;SDS011;11491;41.942;24.220;2022-12-20T15:05:47;73.85;;;43.45;;
22648;SDS011;11491;41.942;24.220;2022-12-20T15:08:19;56.08;;;33.80;;
22648;SDS011;11491;41.942;24.220;2022-12-20T15:18:33;82.70;;;47.35;;
22648;SDS011;11491;41.942;24.220;2022-12-20T15:32:05;43.70;;;25.98;;
22648;SDS011;11491;41.942;24.220;2022-12-20T15:52:27;37.10;;;21.00;;
22648;SDS011;11491;41.942;24.220;2022-12-20T15:54:54;40.05;;;24.73;;
22648;SDS011;11491;41.942;24.220;2022-12-20T15:57:23;39.42;;;23.17;;
22648;SDS011;11491;41.942;24.220;2022-12-20T16:02:45;48.42;;;24.20;;
22648;SDS011;11491;41.942;24.220;2022-12-20T16:05:30;44.85;;;25.77;;
22648;SDS011;11491;41.942;24.220;2022-12-20T16:08:01;49.58;;;28.13;;
22648;SDS011;11491;41.942;24.220;2022-12-20T16:10:28;46.63;;;25.27;;
22648;SDS011;11491;41.942;24.220;2022-12-20T16:12:55;48.45;;;26.90;;
22648;SDS011;11491;41.942;24.220;2022-12-20T16:15:23;50.25;;;31.15;;
22648;SDS011;11491;41.942;24.220;2022-12-20T16:17:50;48.10;;;28.60;;
22648;SDS011;11491;41.942;24.220;2022-12-20T16:20:17;43.45;;;27.40;;
22648;SDS011;11491;41.942;24.220;2022-12-20T16:22:45;80.20;;;51.10;;
22648;SDS011;11491;41.942;24.220;2022-12-20T16:25:19;63.25;;;38.85;;
22648;SDS011;11491;41.942;24.220;2022-12-20T16:27:50;65.65;;;39.92;;
22648;SDS011;11491;41.942;24.220;2022-12-20T16:30:19;106.00;;;60.40;;
22648;SDS011;11491;41.942;24.220;2022-12-20T16:32:46;99.75;;;53.80;;
22648;SDS011;11491;41.942;24.220;2022-12-20T16:35:16;88.38;;;51.00;;
22648;SDS011;11491;41.942;24.220;2022-12-20T16:37:57;115.70;;;58.97;;
22648;SDS011;11491;41.942;24.220;2022-12-20T16:51:29;92.97;;;49.43;;
22648;SDS011;11491;41.942;24.220;2022-12-20T16:56:53;119.37;;;67.10;;
22648;SDS011;11491;41.942;24.220;2022-12-20T17:01:56;100.20;;;52.93;;
22648;SDS011;11491;41.942;24.220;2022-12-20T17:09:49;138.53;;;78.20;;
22648;SDS011;11491;41.942;24.220;2022-12-20T17:12:29;129.73;;;72.93;;
22648;SDS011;11491;41.942;24.220;2022-12-20T17:17:34;173.03;;;87.20;;
22648;SDS011;11491;41.942;24.220;2022-12-20T17:20:03;122.10;;;65.87;;
22648;SDS011;11491;41.942;24.220;2022-12-20T17:28:07;110.43;;;61.70;;
22648;SDS011;11491;41.942;24.220;2022-12-20T17:36:56;109.90;;;61.97;;
22648;SDS011;11491;41.942;24.220;2022-12-20T17:57:48;176.63;;;98.63;;
22648;SDS011;11491;41.942;24.220;2022-12-20T18:00:18;124.83;;;68.37;;
22648;SDS011;11491;41.942;24.220;2022-12-20T18:08:07;171.77;;;100.07;;
22648;SDS011;11491;41.942;24.220;2022-12-20T18:37:05;216.20;;;109.23;;
22648;SDS011;11491;41.942;24.220;2022-12-20T19:02:59;198.90;;;107.67;;
22648;SDS011;11491;41.942;24.220;2022-12-20T20:29:00;134.83;;;75.67;;
22648;SDS011;11491;41.942;24.220;2022-12-20T20:31:28;162.37;;;93.13;;
22648;SDS011;11491;41.942;24.220;2022-12-20T20:33:55;156.97;;;86.53;;
22648;SDS011;11491;41.942;24.220;2022-12-20T20:36:23;149.07;;;85.07;;
22648;SDS011;11491;41.942;24.220;2022-12-20T20:38:50;117.03;;;64.27;;
22648;SDS011;11491;41.942;24.220;2022-12-20T20:41:17;121.07;;;66.97;;
22648;SDS011;11491;41.942;24.220;2022-12-20T20:43:45;113.20;;;59.60;;
22648;SDS011;11491;41.942;24.220;2022-12-20T20:46:14;101.40;;;52.90;;
22648;SDS011;11491;41.942;24.220;2022-12-20T20:48:42;121.10;;;59.07;;
22648;SDS011;11491;41.942;24.220;2022-12-20T20:56:20;104.73;;;52.10;;
22648;SDS011;11491;41.942;24.220;2022-12-20T21:20:22;285.07;;;139.83;;
22648;SDS011;11491;41.942;24.220;2022-12-20T21:22:59;340.50;;;167.63;;
22648;SDS011;11491;41.942;24.220;2022-12-20T21:25:26;201.13;;;103.97;;
22648;SDS011;11491;41.942;24.220;2022-12-20T21:30:28;86.43;;;47.43;;
22648;SDS011;11491;41.942;24.220;2022-12-20T21:40:40;103.37;;;53.70;;
